Time;durP1;ratioP1;P1;durP2;ratioP2;P2;SDS_P1;SDS_P2;PMS_P1;PMS_P2;Temp;Humidity;BMP_temperature;BMP_pressure;BME280_temperature;BME280_humidity;BME280_pressure;Samples;Min_cycle;Max_cycle;Signal;HPM_P1;HPM_P2
2024/04/22 00:01:26;;;;;;;1.73;1.10;;;;;;;5.56;74.55;93595.97;5537801;26;20041;-75
2024/04/22 00:03:51;;;;;;;1.15;0.65;;;;;;;5.55;73.48;93581.94;5534712;26;20037;-76
2024/04/22 00:06:17;;;;;;;1.30;0.85;;;;;;;5.57;74.21;93579.78;5536249;25;19995;-76
2024/04/22 00:08:42;;;;;;;1.52;0.85;;;;;;;5.64;73.49;93595.31;5535878;26;19985;-77
2024/04/22 00:11:08;;;;;;;3.05;1.48;;;;;;;5.56;71.02;93585.38;5537086;26;19986;-76
2024/04/22 00:13:33;;;;;;;1.80;1.13;;;;;;;5.57;70.50;93581.66;5537353;26;20001;-76
2024/04/22 00:15:59;;;;;;;2.63;1.70;;;;;;;5.58;67.74;93584.03;5537810;25;19985;-76
2024/04/22 00:18:24;;;;;;;3.45;1.95;;;;;;;5.69;68.00;93584.63;5537681;26;20088;-76
2024/04/22 00:20:50;;;;;;;2.85;1.75;;;;;;;5.76;67.75;93600.94;5537778;26;19993;-76
2024/04/22 00:23:15;;;;;;;3.83;2.08;;;;;;;5.82;65.63;93613.00;5505550;25;20185;-76
2024/04/22 00:25:41;;;;;;;2.60;1.65;;;;;;;5.70;66.09;93615.31;5537674;25;20196;-76
2024/04/22 00:28:07;;;;;;;3.38;1.90;;;;;;;5.84;65.44;93618.00;5536908;25;19989;-76
2024/04/22 00:30:32;;;;;;;3.33;1.88;;;;;;;5.91;67.32;93618.41;5537200;26;20093;-76
2024/04/22 00:32:57;;;;;;;4.20;1.42;;;;;;;5.98;72.53;93621.53;5537332;25;19997;-76
2024/04/22 00:35:23;;;;;;;7.90;1.48;;;;;;;5.82;74.34;93625.44;5536965;25;20092;-77
2024/04/22 00:37:48;;;;;;;2.75;1.58;;;;;;;5.82;74.89;93615.66;5537433;26;20082;-76
2024/04/22 00:40:14;;;;;;;4.80;1.95;;;;;;;5.79;73.05;93620.72;5537467;25;20151;-76
2024/04/22 00:42:43;;;;;;;3.17;1.27;;;;;;;5.86;75.35;93629.06;5536975;25;19986;-76
2024/04/22 00:45:10;;;;;;;2.65;1.48;;;;;;;5.78;75.57;93641.09;5537046;26;19982;-76
2024/04/22 00:47:35;;;;;;;3.92;1.50;;;;;;;5.71;76.23;93635.38;5537032;26;19997;-77
2024/04/22 00:50:02;;;;;;;4.03;1.50;;;;;;;5.59;76.03;93633.16;5537119;26;19989;-77
2024/04/22 00:52:27;;;;;;;3.17;1.52;;;;;;;5.61;76.48;93635.53;5538232;25;19997;-77
2024/04/22 00:54:53;;;;;;;3.85;1.80;;;;;;;5.55;76.86;93636.69;5540675;25;20222;-77
2024/04/22 00:57:19;;;;;;;3.20;1.20;;;;;;;5.43;76.51;93645.84;5540695;26;20092;-77
2024/04/22 00:59:45;;;;;;;3.05;1.75;;;;;;;5.42;76.08;93652.19;5540757;26;20018;-77
2024/04/22 01:02:11;;;;;;;3.83;1.85;;;;;;;5.42;76.29;93654.81;5540963;26;19985;-77
2024/04/22 01:04:38;;;;;;;2.95;1.63;;;;;;;5.40;71.78;93646.41;5540792;26;19982;-77
2024/04/22 01:07:04;;;;;;;2.97;1.80;;;;;;;5.50;69.92;93647.34;5540430;25;20058;-77
2024/04/22 01:09:29;;;;;;;5.47;1.75;;;;;;;5.53;68.62;93657.31;5540375;26;19986;-77
2024/04/22 01:11:55;;;;;;;3.10;1.88;;;;;;;5.50;68.47;93649.97;5540891;26;19985;-76
2024/04/22 01:14:20;;;;;;;2.75;1.90;;;;;;;5.57;68.00;93645.09;5540459;26;20085;-76
2024/04/22 01:16:55;;;;;;;2.97;1.70;;;;;;;5.67;66.59;93646.81;5540514;26;19997;-77
2024/04/22 01:19:21;;;;;;;3.13;1.85;;;;;;;5.74;66.58;93653.34;5540556;26;19982;-76
2024/04/22 01:21:51;;;;;;;2.72;1.55;;;;;;;5.77;66.67;93668.59;5540379;26;20100;-77
2024/04/22 01:24:18;;;;;;;3.00;1.77;;;;;;;5.81;66.84;93661.69;5508672;26;20051;-77
2024/04/22 01:26:46;;;;;;;2.88;1.48;;;;;;;5.80;65.97;93662.75;5540570;25;19985;-76
2024/04/22 01:29:12;;;;;;;2.13;1.23;;;;;;;5.85;65.87;93669.03;5508728;26;19994;-76
2024/04/22 01:31:37;;;;;;;2.45;1.52;;;;;;;5.74;65.93;93665.75;5538764;26;20205;-76
2024/04/22 01:34:02;;;;;;;2.30;1.42;;;;;;;5.88;66.83;93671.09;5536936;26;19981;-76
2024/04/22 01:36:28;;;;;;;2.30;1.40;;;;;;;5.90;66.68;93675.03;5537322;25;20197;-76
2024/04/22 01:38:53;;;;;;;2.47;1.08;;;;;;;5.79;66.11;93668.34;5539024;25;19988;-77
2024/04/22 01:41:18;;;;;;;2.72;1.13;;;;;;;5.92;67.01;93680.03;5539699;26;20017;-76
2024/04/22 01:43:45;;;;;;;1.45;0.80;;;;;;;5.80;66.32;93678.63;5539459;25;20009;-77
2024/04/22 01:46:11;;;;;;;1.70;0.95;;;;;;;5.82;67.33;93689.72;5540371;26;20001;-76
2024/04/22 01:48:36;;;;;;;1.75;1.15;;;;;;;5.65;67.12;93684.13;5540315;25;19992;-77
2024/04/22 01:51:05;;;;;;;1.90;1.05;;;;;;;5.68;67.25;93674.81;5539951;25;20140;-76
2024/04/22 01:53:30;;;;;;;1.65;0.95;;;;;;;5.74;67.64;93686.91;5540176;25;19986;-77
2024/04/22 01:55:57;;;;;;;1.35;1.17;;;;;;;5.77;67.70;93684.47;5539977;26;19986;-76
2024/04/22 01:58:23;;;;;;;1.70;0.93;;;;;;;5.81;68.39;93680.19;5539841;25;19990;-76
2024/04/22 02:00:48;;;;;;;4.38;1.25;;;;;;;5.85;68.58;93671.69;5540065;26;20001;-78
2024/04/22 02:03:13;;;;;;;1.90;1.10;;;;;;;5.86;68.33;93670.59;5539961;26;19986;-77
2024/04/22 02:05:41;;;;;;;1.52;0.88;;;;;;;5.85;68.57;93672.47;5539929;25;19996;-77
2024/04/22 02:08:06;;;;;;;1.50;0.88;;;;;;;5.84;68.62;93678.81;5539910;26;20033;-77
2024/04/22 02:10:32;;;;;;;1.45;0.80;;;;;;;5.75;68.30;93683.19;5508110;26;20001;-77
2024/04/22 02:12:57;;;;;;;2.22;0.90;;;;;;;5.80;68.36;93681.28;5539956;26;19985;-78
2024/04/22 02:15:22;;;;;;;3.10;1.13;;;;;;;5.82;69.28;93684.41;5539897;25;19992;-77
2024/04/22 02:17:50;;;;;;;2.17;1.33;;;;;;;5.79;70.33;93669.09;5539551;26;20056;-77
2024/04/22 02:20:16;;;;;;;1.50;1.13;;;;;;;5.72;70.66;93681.13;5539690;25;19981;-77
2024/04/22 02:22:41;;;;;;;2.15;1.10;;;;;;;5.65;70.40;93678.84;5539906;26;20001;-77
2024/04/22 02:25:06;;;;;;;2.33;1.30;;;;;;;5.58;71.40;93679.19;5508264;26;19993;-77
2024/04/22 02:27:32;;;;;;;2.90;1.17;;;;;;;5.59;73.34;93677.34;5539537;26;19986;-77
2024/04/22 02:29:57;;;;;;;2.65;1.35;;;;;;;5.55;73.64;93682.41;5539618;26;19981;-77
2024/04/22 02:32:23;;;;;;;2.55;1.30;;;;;;;5.54;74.44;93680.06;5539230;25;20030;-77
2024/04/22 02:34:49;;;;;;;2.97;1.17;;;;;;;5.51;75.29;93681.41;5539507;25;20010;-77
2024/04/22 02:37:14;;;;;;;2.30;1.40;;;;;;;5.57;75.54;93679.47;5539333;26;20050;-77
2024/04/22 02:39:40;;;;;;;2.63;1.30;;;;;;;5.60;75.67;93684.22;5539474;26;20001;-77
2024/04/22 02:42:05;;;;;;;2.60;1.33;;;;;;;5.61;75.76;93689.19;5539053;26;20145;-77
2024/04/22 02:44:31;;;;;;;3.40;1.35;;;;;;;5.65;75.73;93694.69;5539056;25;19989;-77
2024/04/22 02:46:56;;;;;;;2.40;1.40;;;;;;;5.62;75.57;93684.72;5538931;26;19989;-77
2024/04/22 02:49:22;;;;;;;2.50;1.23;;;;;;;5.66;73.78;93684.91;5538911;25;19996;-77
2024/04/22 02:51:47;;;;;;;4.05;1.45;;;;;;;5.68;73.77;93698.63;5539294;26;20080;-77
2024/04/22 02:54:12;;;;;;;2.95;1.30;;;;;;;5.69;73.97;93695.69;5539196;25;20046;-77
2024/04/22 02:56:38;;;;;;;2.70;1.55;;;;;;;5.79;74.07;93692.91;5538898;26;19986;-77
2024/04/22 02:59:03;;;;;;;2.88;1.42;;;;;;;5.81;74.08;93697.94;5507671;26;20009;-77
2024/04/22 03:01:32;;;;;;;2.80;1.55;;;;;;;5.86;75.09;93694.41;5538960;26;20138;-77
2024/04/22 03:04:00;;;;;;;2.90;1.60;;;;;;;5.95;76.59;93713.91;5538828;25;20229;-77
2024/04/22 03:06:25;;;;;;;2.90;1.67;;;;;;;5.92;79.36;93706.50;5538993;26;20001;-77
2024/04/22 03:08:51;;;;;;;5.97;2.20;;;;;;;5.97;80.64;93712.53;5539077;25;20149;-77
2024/04/22 03:11:16;;;;;;;2.75;1.70;;;;;;;6.00;80.73;93714.63;5538889;25;19996;-77
2024/04/22 03:13:41;;;;;;;3.45;2.20;;;;;;;5.97;80.90;93712.53;5538830;25;20224;-78
2024/04/22 03:16:07;;;;;;;3.08;1.75;;;;;;;5.90;81.61;93712.06;5505758;26;20097;-78
2024/04/22 03:18:32;;;;;;;4.80;2.30;;;;;;;5.85;82.47;93711.38;5538782;26;20000;-78
2024/04/22 03:20:58;;;;;;;3.42;2.03;;;;;;;5.87;82.59;93722.44;5506980;26;20212;-77
2024/04/22 03:23:23;;;;;;;7.22;2.28;;;;;;;5.86;83.20;93721.63;5538726;26;19982;-77
2024/04/22 03:25:49;;;;;;;4.03;2.17;;;;;;;5.84;83.49;93729.06;5538702;25;20207;-78
2024/04/22 03:28:14;;;;;;;3.92;2.20;;;;;;;5.85;83.95;93730.66;5538437;26;20065;-78
2024/04/22 03:30:39;;;;;;;4.32;2.28;;;;;;;5.83;84.19;93735.44;5538727;25;19985;-77
2024/04/22 03:33:05;;;;;;;5.13;1.90;;;;;;;5.83;83.93;93733.59;5538838;26;20073;-77
2024/04/22 03:35:36;;;;;;;3.75;1.85;;;;;;;5.81;84.12;93738.38;5538703;26;19992;-77
2024/04/22 03:38:01;;;;;;;5.47;2.15;;;;;;;5.76;84.12;93738.47;5538694;25;19997;-78
2024/04/22 03:40:27;;;;;;;6.18;1.88;;;;;;;5.63;84.33;93733.88;5538148;25;20081;-77
2024/04/22 03:42:52;;;;;;;4.28;1.85;;;;;;;5.63;84.89;93744.44;5538434;26;19985;-78
2024/04/22 03:45:17;;;;;;;3.35;2.00;;;;;;;5.61;84.79;93747.38;5538245;26;20133;-77
2024/04/22 03:50:27;;;;;;;7.75;2.33;;;;;;;5.67;84.74;93755.25;5538305;25;20124;-77
2024/04/22 03:52:52;;;;;;;3.95;2.20;;;;;;;5.63;84.53;93745.22;5538134;26;19986;-76
2024/04/22 03:55:17;;;;;;;3.78;2.13;;;;;;;5.68;84.65;93747.03;5538025;25;19985;-77
2024/04/22 03:57:43;;;;;;;3.47;1.77;;;;;;;5.72;84.38;93753.31;5538387;26;19989;-77
2024/04/22 04:00:09;;;;;;;3.95;1.88;;;;;;;5.76;83.85;93756.97;5538436;25;20041;-77
2024/04/22 04:02:35;;;;;;;4.20;1.95;;;;;;;5.80;83.59;93759.81;5537708;25;20088;-77
2024/04/22 04:05:00;;;;;;;3.53;2.25;;;;;;;5.87;83.69;93764.78;5538026;25;20088;-77
2024/04/22 04:07:25;;;;;;;4.20;2.17;;;;;;;5.89;83.87;93766.06;5538376;26;20093;-77
2024/04/22 04:09:51;;;;;;;4.80;2.17;;;;;;;5.91;83.96;93768.41;5537671;26;19992;-76
2024/04/22 04:12:16;;;;;;;3.53;2.17;;;;;;;5.95;83.87;93772.09;5537409;26;19986;-76
2024/04/22 04:14:42;;;;;;;4.63;2.22;;;;;;;6.04;83.14;93773.00;5505683;25;19996;-77
2024/04/22 04:17:07;;;;;;;5.75;2.38;;;;;;;6.11;82.51;93780.63;5537638;25;20001;-77
2024/04/22 04:19:32;;;;;;;6.90;2.70;;;;;;;6.10;82.46;93769.22;5537655;26;20157;-77
2024/04/22 04:21:58;;;;;;;7.35;2.78;;;;;;;6.13;82.43;93778.47;5537700;25;20082;-77
2024/04/22 04:24:23;;;;;;;6.60;2.42;;;;;;;6.15;82.35;93777.09;5537405;26;19989;-77
2024/04/22 04:26:48;;;;;;;8.77;2.58;;;;;;;6.16;82.52;93786.59;5538839;25;20038;-78
2024/04/22 04:29:14;;;;;;;4.28;2.13;;;;;;;6.18;82.81;93794.25;5541275;26;19989;-78
2024/04/22 04:31:39;;;;;;;4.00;2.47;;;;;;;6.22;82.05;93789.97;5541464;26;19985;-78
2024/04/22 04:34:05;;;;;;;5.25;2.53;;;;;;;6.25;82.18;93792.06;5541079;26;19993;-78
2024/04/22 04:36:30;;;;;;;8.82;2.47;;;;;;;6.22;82.17;93801.34;5541217;26;20013;-78
2024/04/22 04:38:55;;;;;;;6.50;2.15;;;;;;;6.28;81.56;93807.34;5541103;25;20050;-78
2024/04/22 04:41:22;;;;;;;3.17;1.40;;;;;;;6.26;73.89;93811.34;5540599;25;19985;-77
2024/04/22 04:43:47;;;;;;;2.25;1.15;;;;;;;6.34;70.61;93805.41;5509093;26;20034;-77
2024/04/22 04:46:12;;;;;;;3.72;1.58;;;;;;;6.39;71.27;93814.06;5541221;25;19997;-77
2024/04/22 04:48:38;;;;;;;4.40;2.50;;;;;;;6.55;74.16;93811.97;5541155;26;20042;-77
2024/04/22 04:51:04;;;;;;;4.68;2.67;;;;;;;6.66;76.47;93817.91;5540917;26;20173;-78
2024/04/22 04:53:30;;;;;;;5.18;2.13;;;;;;;6.78;77.63;93815.59;5540861;25;20097;-77
2024/04/22 04:55:55;;;;;;;3.50;2.30;;;;;;;6.81;77.90;93815.00;5540795;25;19989;-78
2024/04/22 04:58:21;;;;;;;8.80;1.88;;;;;;;6.83;78.06;93820.03;5541061;25;19990;-77
2024/04/22 05:00:46;;;;;;;4.60;1.90;;;;;;;6.91;78.29;93818.56;5540771;25;20149;-77
2024/04/22 05:03:12;;;;;;;5.00;2.30;;;;;;;7.02;78.42;93828.72;5541312;25;20026;-78
2024/04/22 05:05:37;;;;;;;5.07;2.33;;;;;;;7.19;78.03;93827.38;5540481;25;19992;-78
2024/04/22 05:08:03;;;;;;;13.75;3.15;;;;;;;7.32;77.66;93823.94;5540732;26;19991;-78
2024/04/22 05:10:30;;;;;;;7.25;3.13;;;;;;;7.43;76.37;93821.91;5540722;26;20096;-77
2024/04/22 05:12:55;;;;;;;4.95;2.30;;;;;;;7.48;74.27;93826.31;5539872;25;20059;-77
2024/04/22 05:15:21;;;;;;;7.82;2.72;;;;;;;7.46;73.93;93823.19;5540802;25;19997;-78
2024/04/22 05:17:46;;;;;;;6.53;2.97;;;;;;;7.39;74.45;93829.66;5508830;26;19986;-77
2024/04/22 05:20:11;;;;;;;4.70;2.30;;;;;;;7.38;75.19;93817.47;5540844;26;19993;-77
2024/04/22 05:22:37;;;;;;;9.73;2.42;;;;;;;7.40;74.99;93828.56;5540411;26;19989;-77
2024/04/22 05:25:02;;;;;;;3.78;1.98;;;;;;;7.43;75.21;93829.88;5508807;26;20206;-77
2024/04/22 05:27:28;;;;;;;6.50;2.65;;;;;;;7.43;74.95;93830.66;5540316;26;20030;-77
2024/04/22 05:29:53;;;;;;;2.85;1.60;;;;;;;7.42;74.25;93839.66;5540246;26;20007;-77
2024/04/22 05:32:19;;;;;;;4.35;2.30;;;;;;;7.25;74.43;93844.75;5540315;26;19986;-78
2024/04/22 05:37:29;;;;;;;10.85;1.77;;;;;;;7.17;75.31;93837.50;5539768;25;19997;-77
2024/04/22 05:39:54;;;;;;;8.85;2.22;;;;;;;7.12;75.06;93838.34;5540328;25;19985;-77
2024/04/22 05:42:20;;;;;;;3.42;2.00;;;;;;;7.14;75.94;93832.75;5539805;25;20189;-78
2024/04/22 05:44:45;;;;;;;2.60;1.85;;;;;;;7.13;74.78;93836.50;5540686;25;20193;-77
2024/04/22 05:47:11;;;;;;;5.72;2.05;;;;;;;7.11;76.01;93830.69;5539938;26;20013;-81
2024/04/22 05:49:36;;;;;;;11.75;2.08;;;;;;;7.07;76.22;93835.00;5539906;26;20037;-80
2024/04/22 05:52:02;;;;;;;6.05;2.50;;;;;;;7.11;76.65;93849.25;5539994;25;19989;-81
2024/04/22 05:54:27;;;;;;;3.47;1.92;;;;;;;7.10;75.54;93843.16;5540017;25;20134;-80
2024/04/22 05:56:52;;;;;;;4.57;2.17;;;;;;;7.10;75.59;93843.16;5540196;26;20039;-80
2024/04/22 05:59:18;;;;;;;3.55;1.75;;;;;;;7.20;76.01;93842.19;5539749;25;19981;-79
2024/04/22 06:01:43;;;;;;;3.60;1.95;;;;;;;7.30;76.29;93842.00;5539836;26;19985;-80
2024/04/22 06:04:09;;;;;;;4.22;2.03;;;;;;;7.39;76.48;93842.16;5540387;26;20088;-80
2024/04/22 06:06:36;;;;;;;5.40;2.38;;;;;;;7.43;74.48;93857.16;5539536;25;20026;-80
2024/04/22 06:09:12;;;;;;;3.17;2.00;;;;;;;7.51;74.08;93849.59;5539768;25;19985;-80
2024/04/22 06:11:38;;;;;;;3.38;1.85;;;;;;;7.54;73.48;93852.44;5539694;25;20092;-80
2024/04/22 06:14:03;;;;;;;3.80;2.00;;;;;;;7.55;73.17;93853.22;5539511;25;19985;-79
2024/04/22 06:16:29;;;;;;;3.60;2.40;;;;;;;7.73;73.01;93870.94;5539320;25;20134;-80
2024/04/22 06:18:54;;;;;;;7.65;1.95;;;;;;;7.84;72.55;93872.31;5507485;26;19982;-80
2024/04/22 06:21:22;;;;;;;6.32;2.80;;;;;;;7.93;73.20;93874.28;5507887;26;19989;-80
2024/04/22 06:23:48;;;;;;;8.32;2.78;;;;;;;8.10;72.36;93879.78;5539513;25;20001;-80
2024/04/22 06:26:14;;;;;;;4.97;2.88;;;;;;;8.18;72.19;93876.44;5539829;26;20191;-80
2024/04/22 06:28:39;;;;;;;5.80;2.83;;;;;;;8.35;71.34;93883.00;5507918;26;20009;-80
2024/04/22 06:31:04;;;;;;;4.82;2.30;;;;;;;8.51;70.23;93888.78;5539860;26;19989;-80
2024/04/22 06:33:30;;;;;;;5.15;2.80;;;;;;;8.62;70.23;93890.94;5539085;25;20202;-80
2024/04/22 06:35:56;;;;;;;6.03;2.10;;;;;;;8.74;69.06;93892.28;5539278;26;19996;-80
2024/04/22 06:38:22;;;;;;;4.18;2.10;;;;;;;8.76;68.06;93906.06;5539063;25;20005;-80
2024/04/22 06:40:47;;;;;;;3.88;2.25;;;;;;;8.55;66.38;93895.88;5539389;26;19986;-79
2024/04/22 06:43:12;;;;;;;9.82;1.90;;;;;;;8.50;67.93;93903.16;5539412;26;19988;-79
2024/04/22 06:45:42;;;;;;;3.53;1.73;;;;;;;8.42;68.03;93908.09;5538834;26;19989;-79
2024/04/22 06:48:08;;;;;;;3.60;2.33;;;;;;;8.44;67.19;93915.75;5539340;25;19989;-81
2024/04/22 06:50:33;;;;;;;5.72;1.77;;;;;;;8.43;67.06;93908.88;5537545;26;20069;-80
2024/04/22 06:52:58;;;;;;;6.95;1.90;;;;;;;8.39;66.89;93913.19;5538977;26;19996;-79
2024/04/22 06:55:24;;;;;;;11.50;2.15;;;;;;;8.34;67.51;93924.69;5539115;25;20252;-79
2024/04/22 06:57:50;;;;;;;3.88;2.17;;;;;;;8.37;68.98;93923.34;5538839;26;19996;-79
2024/04/22 07:00:16;;;;;;;3.90;1.80;;;;;;;8.43;68.04;93925.59;5507400;26;19993;-79
2024/04/22 07:02:42;;;;;;;4.28;2.35;;;;;;;8.48;67.31;93922.06;5539006;26;20119;-79
2024/04/22 07:05:07;;;;;;;6.35;2.50;;;;;;;8.45;67.97;93925.31;5538997;26;19981;-79
2024/04/22 07:07:33;;;;;;;3.42;1.95;;;;;;;8.33;67.02;93940.94;5538554;26;19981;-79
2024/04/22 07:09:58;;;;;;;5.60;2.30;;;;;;;8.28;67.23;93936.50;5538757;26;20005;-80
2024/04/22 07:12:24;;;;;;;6.43;2.90;;;;;;;8.33;67.88;93940.94;5538340;26;19993;-79
2024/04/22 07:14:49;;;;;;;4.70;2.60;;;;;;;8.18;67.17;93950.78;5538667;25;20013;-79
2024/04/22 07:17:15;;;;;;;10.32;3.03;;;;;;;8.26;68.25;93951.94;5538550;25;20192;-79
2024/04/22 07:19:40;;;;;;;7.90;3.15;;;;;;;8.31;68.41;93954.50;5538695;25;19997;-80
2024/04/22 07:22:06;;;;;;;5.88;3.90;;;;;;;8.36;67.67;93953.63;5538524;25;20138;-80
2024/04/22 07:24:31;;;;;;;7.95;3.22;;;;;;;8.39;66.04;93961.78;5538178;26;20045;-80
2024/04/22 07:26:57;;;;;;;4.95;2.90;;;;;;;8.40;65.28;93960.69;5538236;26;20001;-79
2024/04/22 07:29:23;;;;;;;5.35;3.22;;;;;;;8.34;65.81;93964.53;5538167;26;20088;-79
2024/04/22 07:31:50;;;;;;;5.70;3.35;;;;;;;8.47;66.42;93955.03;5506938;26;19985;-79
2024/04/22 07:34:16;;;;;;;5.50;2.67;;;;;;;8.56;64.27;93955.88;5538637;25;19982;-79
2024/04/22 07:36:46;;;;;;;4.68;2.72;;;;;;;8.67;65.51;93960.97;5506588;25;19985;-78
2024/04/22 07:39:14;;;;;;;5.60;2.88;;;;;;;8.80;63.59;93965.50;5538598;26;20059;-78
2024/04/22 07:41:40;;;;;;;4.53;2.80;;;;;;;8.89;63.54;93954.94;5538491;26;19986;-78
2024/04/22 07:44:05;;;;;;;5.80;3.28;;;;;;;9.02;63.71;93954.91;5538526;26;20073;-78
2024/04/22 07:46:32;;;;;;;4.20;2.50;;;;;;;9.23;62.14;93962.41;5506264;26;19989;-78
2024/04/22 07:48:58;;;;;;;5.75;3.08;;;;;;;9.27;61.84;93954.63;5537989;25;20205;-78
2024/04/22 07:51:23;;;;;;;4.47;3.03;;;;;;;9.29;59.36;93961.22;5537853;25;20000;-79
2024/04/22 07:53:49;;;;;;;6.05;3.50;;;;;;;9.29;61.19;93955.88;5538110;25;20195;-78
2024/04/22 07:56:16;;;;;;;6.57;3.58;;;;;;;9.29;61.16;93958.53;5537902;26;19985;-78
2024/04/22 07:58:45;;;;;;;5.35;2.75;;;;;;;9.29;60.07;93971.84;5537709;26;20035;-78
2024/04/22 08:01:14;;;;;;;4.35;2.97;;;;;;;9.14;60.53;93964.19;5539232;26;20241;-78
2024/04/22 08:03:41;;;;;;;4.03;2.58;;;;;;;9.02;59.40;93970.06;5542125;26;20192;-78
2024/04/22 08:06:16;;;;;;;6.00;2.95;;;;;;;8.89;60.80;93963.69;5541419;26;20041;-78
2024/04/22 08:08:41;;;;;;;5.68;2.78;;;;;;;8.95;60.02;93967.81;5541506;26;20125;-78
2024/04/22 08:11:07;;;;;;;3.72;2.63;;;;;;;8.93;59.75;93969.19;5541670;26;19993;-78
2024/04/22 08:13:33;;;;;;;3.92;2.83;;;;;;;8.99;58.82;93963.47;5541631;26;19997;-77
2024/04/22 08:15:58;;;;;;;6.65;3.05;;;;;;;9.01;57.44;93971.94;5541654;26;20009;-77
2024/04/22 08:18:23;;;;;;;12.43;3.58;;;;;;;9.14;57.91;93977.50;5541325;26;20029;-77
2024/04/22 08:20:49;;;;;;;4.05;2.72;;;;;;;9.10;54.00;93968.56;5541608;26;19996;-77
2024/04/22 08:23:14;;;;;;;4.53;2.78;;;;;;;9.17;53.35;93974.25;5541405;26;19981;-77
2024/04/22 08:25:42;;;;;;;4.50;2.88;;;;;;;9.22;54.65;93972.28;5541434;25;19989;-75
2024/04/22 08:28:08;;;;;;;5.07;3.00;;;;;;;9.17;54.25;93953.75;5541844;25;19986;-75
2024/04/22 08:30:33;;;;;;;3.15;2.17;;;;;;;9.41;54.23;93966.78;5541488;26;20249;-75
2024/04/22 08:33:00;;;;;;;4.10;2.65;;;;;;;9.51;52.95;93964.97;5541300;25;20096;-74
2024/04/22 08:35:25;;;;;;;3.50;2.00;;;;;;;9.68;53.14;93966.94;5541310;25;20085;-74
2024/04/22 08:37:51;;;;;;;4.57;2.85;;;;;;;9.81;53.91;93955.41;5540958;26;19996;-74
2024/04/22 08:40:16;;;;;;;5.18;3.17;;;;;;;10.03;53.29;93957.25;5541233;26;19991;-74
2024/04/22 08:42:42;;;;;;;6.95;2.70;;;;;;;10.09;50.67;93956.03;5541018;26;19992;-75
2024/04/22 08:45:07;;;;;;;3.72;2.38;;;;;;;10.13;52.70;93972.97;5541182;26;20018;-75
2024/04/22 08:47:33;;;;;;;4.10;2.70;;;;;;;10.17;52.16;93955.28;5540903;25;19989;-75
2024/04/22 08:49:59;;;;;;;4.10;2.40;;;;;;;10.28;51.80;93961.13;5541141;26;19989;-75
2024/04/22 08:52:25;;;;;;;3.50;2.00;;;;;;;10.43;50.62;93959.94;5540768;26;20084;-75
2024/04/22 08:54:50;;;;;;;5.55;2.28;;;;;;;10.52;49.28;93960.78;5541088;26;19992;-75
2024/04/22 08:57:16;;;;;;;7.63;2.22;;;;;;;10.60;50.05;93957.34;5541195;26;20209;-75
2024/04/22 08:59:41;;;;;;;3.58;2.30;;;;;;;10.75;49.16;93956.09;5541035;25;19986;-75
2024/04/22 09:02:07;;;;;;;4.78;2.17;;;;;;;10.79;46.93;93957.06;5540989;25;19981;-75
2024/04/22 09:04:33;;;;;;;3.70;2.25;;;;;;;10.87;48.43;93966.16;5540503;25;20001;-76
2024/04/22 09:07:07;;;;;;;6.25;2.50;;;;;;;10.94;47.70;93971.81;5540222;25;19989;-75
2024/04/22 09:09:32;;;;;;;4.50;2.10;;;;;;;10.90;45.83;93964.75;5540734;25;20073;-75
2024/04/22 09:11:58;;;;;;;3.70;1.83;;;;;;;10.79;47.33;93962.38;5540709;26;20009;-76
2024/04/22 09:14:25;;;;;;;3.85;2.70;;;;;;;10.82;49.13;93968.97;5539396;25;20212;-76
2024/04/22 09:16:50;;;;;;;10.70;3.17;;;;;;;10.93;49.44;93964.91;5540942;25;20085;-76
2024/04/22 09:19:23;;;;;;;4.18;2.47;;;;;;;11.11;48.85;93957.69;5541199;26;20005;-76
2024/04/22 09:21:48;;;;;;;4.97;2.60;;;;;;;11.29;48.85;93963.81;5540946;25;19982;-76
2024/04/22 09:24:14;;;;;;;2.92;2.38;;;;;;;11.36;45.06;93974.81;5540956;25;19985;-76
2024/04/22 09:26:40;;;;;;;3.47;2.08;;;;;;;11.34;45.14;93965.56;5540651;25;19995;-76
2024/04/22 09:29:07;;;;;;;3.42;2.38;;;;;;;11.26;44.97;93959.13;5541016;26;20010;-75
2024/04/22 09:31:38;;;;;;;4.13;2.22;;;;;;;11.24;45.90;93961.31;5540555;26;20091;-75
2024/04/22 09:34:04;;;;;;;6.18;2.33;;;;;;;11.48;47.20;93954.69;5540474;25;20382;-76
2024/04/22 09:36:31;;;;;;;5.97;2.08;;;;;;;11.73;45.76;93959.22;5540202;25;20038;-77
2024/04/22 09:38:57;;;;;;;8.00;3.05;;;;;;;11.73;45.59;93958.44;5540356;26;20037;-76
2024/04/22 09:41:25;;;;;;;5.20;2.83;;;;;;;11.62;46.08;93972.13;5539987;25;19993;-77
2024/04/22 09:43:52;;;;;;;9.50;3.13;;;;;;;11.54;47.09;93964.13;5539798;25;19997;-77
2024/04/22 09:46:18;;;;;;;5.38;2.92;;;;;;;11.47;45.83;93969.94;5540168;26;20001;-77
2024/04/22 09:48:44;;;;;;;5.18;3.13;;;;;;;11.61;48.50;93969.78;5540577;26;20197;-76
2024/04/22 09:51:11;;;;;;;10.25;3.17;;;;;;;11.68;48.45;93964.72;5508638;26;20029;-76
2024/04/22 09:53:39;;;;;;;5.93;3.38;;;;;;;11.60;48.39;93970.88;5540071;25;19986;-76
2024/04/22 09:56:08;;;;;;;4.20;2.45;;;;;;;11.66;47.48;93966.94;5540057;25;20156;-76
2024/04/22 09:58:36;;;;;;;5.40;2.92;;;;;;;11.74;47.79;93968.78;5540066;25;20201;-76
2024/04/22 10:01:01;;;;;;;4.07;2.40;;;;;;;11.91;47.65;93949.31;5539891;26;20185;-76
2024/04/22 10:03:28;;;;;;;4.15;2.63;;;;;;;12.01;47.95;93953.53;5508125;26;20000;-76
2024/04/22 10:05:56;;;;;;;6.03;2.50;;;;;;;12.35;48.04;93960.63;5539829;26;20088;-76
2024/04/22 10:08:22;;;;;;;7.05;2.80;;;;;;;12.77;47.56;93946.59;5539469;26;20035;-77
2024/04/22 10:10:48;;;;;;;7.57;3.53;;;;;;;13.08;45.94;93951.56;5540031;25;19985;-77
2024/04/22 10:13:14;;;;;;;4.88;2.90;;;;;;;13.39;47.62;93951.22;5540123;25;19989;-77
2024/04/22 10:15:40;;;;;;;8.85;2.92;;;;;;;13.87;43.09;93945.56;5539674;25;19981;-77
2024/04/22 10:18:10;;;;;;;4.35;2.88;;;;;;;13.94;40.06;93946.59;5539939;25;20005;-76
2024/04/22 10:20:35;;;;;;;5.00;2.50;;;;;;;13.81;40.89;93934.28;5539926;25;19996;-76
2024/04/22 10:23:01;;;;;;;6.20;2.97;;;;;;;13.81;41.48;93948.44;5539830;25;20084;-76
2024/04/22 10:25:30;;;;;;;6.90;3.15;;;;;;;13.70;42.94;93944.63;5539817;26;20078;-76
2024/04/22 10:27:55;;;;;;;6.97;3.45;;;;;;;13.58;42.58;93947.25;5539915;25;19993;-75
2024/04/22 10:30:34;;;;;;;2.88;2.20;;;;;;;13.32;41.91;93950.16;5539771;25;20097;-77
2024/04/22 10:33:00;;;;;;;5.70;2.97;;;;;;;13.09;42.67;93942.44;5539414;26;19985;-75
2024/04/22 10:35:26;;;;;;;4.03;2.58;;;;;;;12.90;41.82;93939.41;5539087;26;19985;-75
2024/04/22 10:37:51;;;;;;;4.45;2.72;;;;;;;12.90;43.36;93942.09;5539296;26;20031;-75
2024/04/22 10:40:16;;;;;;;6.90;2.78;;;;;;;12.99;45.19;93943.59;5507630;26;20001;-76
2024/04/22 10:42:42;;;;;;;3.60;2.55;;;;;;;13.21;42.56;93929.13;5539262;26;20010;-76
2024/04/22 10:45:07;;;;;;;8.38;2.55;;;;;;;13.56;45.09;93931.53;5539708;26;19992;-76
2024/04/22 10:47:34;;;;;;;3.78;2.70;;;;;;;13.91;44.04;93931.16;5539275;26;19981;-76
2024/04/22 10:50:00;;;;;;;4.95;3.22;;;;;;;14.28;43.71;93933.13;5539179;26;20249;-76
2024/04/22 10:52:25;;;;;;;4.57;2.85;;;;;;;14.39;40.68;93932.34;5539257;25;20038;-76
2024/04/22 10:54:51;;;;;;;4.47;2.58;;;;;;;14.31;40.52;93924.41;5539241;25;20000;-76
2024/04/22 10:57:17;;;;;;;5.80;3.05;;;;;;;14.21;42.22;93925.63;5539475;26;19981;-76
2024/04/22 10:59:42;;;;;;;5.97;2.80;;;;;;;14.33;42.28;93930.22;5539512;25;20014;-81
2024/04/22 11:02:09;;;;;;;4.15;3.13;;;;;;;14.33;40.63;93940.94;5539396;26;20077;-76
2024/04/22 11:04:37;;;;;;;4.13;2.97;;;;;;;14.02;41.24;93943.03;5538813;25;19986;-80
2024/04/22 11:07:03;;;;;;;5.72;2.85;;;;;;;13.83;42.89;93932.81;5538801;25;20036;-76
2024/04/22 11:09:30;;;;;;;4.88;3.38;;;;;;;13.71;41.18;93930.09;5538768;25;19997;-84
2024/04/22 11:11:55;;;;;;;11.23;2.90;;;;;;;13.65;42.44;93939.47;5539340;26;19985;-77
2024/04/22 11:14:21;;;;;;;3.83;2.72;;;;;;;13.62;42.60;93940.13;5537188;26;20081;-77
2024/04/22 11:16:46;;;;;;;5.43;2.90;;;;;;;13.66;42.40;93938.38;5538881;26;20116;-76
2024/04/22 11:19:11;;;;;;;9.13;3.22;;;;;;;13.60;42.64;93937.78;5538561;25;19997;-75
2024/04/22 11:21:37;;;;;;;9.77;2.92;;;;;;;13.75;41.74;93941.72;5538817;25;20042;-75
2024/04/22 11:24:07;;;;;;;6.80;3.10;;;;;;;13.89;42.54;93943.34;5539044;26;19985;-75
2024/04/22 11:26:33;;;;;;;6.00;2.60;;;;;;;14.08;42.61;93938.22;5506946;26;19985;-75
2024/04/22 11:29:01;;;;;;;6.82;2.72;;;;;;;14.34;42.00;93940.59;5538788;26;19993;-74
2024/04/22 11:31:27;;;;;;;4.20;2.80;;;;;;;14.49;40.91;93939.19;5506533;26;19986;-74
2024/04/22 11:33:54;;;;;;;4.68;2.40;;;;;;;14.53;42.01;93929.34;5538256;26;19996;-76
2024/04/22 11:36:20;;;;;;;4.25;2.67;;;;;;;14.75;41.65;93932.69;5537274;25;19989;-75
2024/04/22 11:38:45;;;;;;;3.42;2.22;;;;;;;14.95;39.46;93933.69;5538630;25;20181;-75